sensor_id;sensor_type;location;lat;lon;timestamp;P1;durP1;ratioP1;P2;durP2;ratioP2
54641;SDS011;40536;53.194;5.728;2023-12-14T00:02:01;27.85;;;25.63;;
54641;SDS011;40536;53.194;5.728;2023-12-14T00:04:27;22.90;;;20.92;;
54641;SDS011;40536;53.194;5.728;2023-12-14T00:06:53;25.52;;;23.23;;
54641;SDS011;40536;53.194;5.728;2023-12-14T00:09:18;23.73;;;21.58;;
54641;SDS011;40536;53.194;5.728;2023-12-14T00:11:44;23.30;;;20.90;;
54641;SDS011;40536;53.194;5.728;2023-12-14T00:14:09;25.50;;;22.88;;
54641;SDS011;40536;53.194;5.728;2023-12-14T00:16:35;23.20;;;20.90;;
54641;SDS011;40536;53.194;5.728;2023-12-14T00:19:01;23.30;;;21.20;;
54641;SDS011;40536;53.194;5.728;2023-12-14T00:21:27;22.77;;;20.48;;
54641;SDS011;40536;53.194;5.728;2023-12-14T00:23:53;22.17;;;20.05;;
54641;SDS011;40536;53.194;5.728;2023-12-14T00:26:18;23.48;;;21.38;;
54641;SDS011;40536;53.194;5.728;2023-12-14T00:28:44;23.75;;;21.73;;
54641;SDS011;40536;53.194;5.728;2023-12-14T00:31:11;18.17;;;16.38;;
54641;SDS011;40536;53.194;5.728;2023-12-14T00:33:37;19.63;;;17.65;;
54641;SDS011;40536;53.194;5.728;2023-12-14T00:36:03;20.33;;;18.58;;
54641;SDS011;40536;53.194;5.728;2023-12-14T00:38:29;21.67;;;19.77;;
54641;SDS011;40536;53.194;5.728;2023-12-14T00:40:55;21.33;;;19.42;;
54641;SDS011;40536;53.194;5.728;2023-12-14T00:43:20;20.60;;;18.70;;
54641;SDS011;40536;53.194;5.728;2023-12-14T00:45:46;20.13;;;18.33;;
54641;SDS011;40536;53.194;5.728;2023-12-14T00:48:12;20.75;;;17.77;;
54641;SDS011;40536;53.194;5.728;2023-12-14T00:50:37;19.13;;;17.35;;
54641;SDS011;40536;53.194;5.728;2023-12-14T00:53:03;17.98;;;16.25;;
54641;SDS011;40536;53.194;5.728;2023-12-14T00:55:29;19.10;;;17.38;;
54641;SDS011;40536;53.194;5.728;2023-12-14T00:57:54;18.13;;;16.52;;
54641;SDS011;40536;53.194;5.728;2023-12-14T01:00:20;17.40;;;15.65;;
54641;SDS011;40536;53.194;5.728;2023-12-14T01:02:45;17.70;;;15.85;;
54641;SDS011;40536;53.194;5.728;2023-12-14T01:05:11;17.30;;;15.65;;
54641;SDS011;40536;53.194;5.728;2023-12-14T01:07:37;20.42;;;18.38;;
54641;SDS011;40536;53.194;5.728;2023-12-14T01:10:03;17.77;;;16.27;;
54641;SDS011;40536;53.194;5.728;2023-12-14T01:12:29;18.35;;;16.65;;
54641;SDS011;40536;53.194;5.728;2023-12-14T01:14:54;17.98;;;16.27;;
54641;SDS011;40536;53.194;5.728;2023-12-14T01:17:20;18.58;;;16.65;;
54641;SDS011;40536;53.194;5.728;2023-12-14T01:19:46;18.52;;;16.77;;
54641;SDS011;40536;53.194;5.728;2023-12-14T01:22:11;17.60;;;15.90;;
54641;SDS011;40536;53.194;5.728;2023-12-14T01:24:37;17.30;;;15.60;;
54641;SDS011;40536;53.194;5.728;2023-12-14T01:27:02;16.48;;;15.10;;
54641;SDS011;40536;53.194;5.728;2023-12-14T01:29:28;16.77;;;15.07;;
54641;SDS011;40536;53.194;5.728;2023-12-14T01:31:55;17.40;;;15.65;;
54641;SDS011;40536;53.194;5.728;2023-12-14T01:34:21;17.08;;;15.48;;
54641;SDS011;40536;53.194;5.728;2023-12-14T01:36:47;16.45;;;14.75;;
54641;SDS011;40536;53.194;5.728;2023-12-14T01:39:12;16.33;;;14.60;;
54641;SDS011;40536;53.194;5.728;2023-12-14T01:41:38;17.63;;;15.75;;
54641;SDS011;40536;53.194;5.728;2023-12-14T01:44:03;17.33;;;15.70;;
54641;SDS011;40536;53.194;5.728;2023-12-14T01:46:29;16.27;;;14.85;;
54641;SDS011;40536;53.194;5.728;2023-12-14T01:48:55;16.30;;;14.60;;
54641;SDS011;40536;53.194;5.728;2023-12-14T01:51:20;17.45;;;15.57;;
54641;SDS011;40536;53.194;5.728;2023-12-14T01:53:46;17.23;;;15.63;;
54641;SDS011;40536;53.194;5.728;2023-12-14T01:56:12;17.85;;;16.02;;
54641;SDS011;40536;53.194;5.728;2023-12-14T01:58:37;19.55;;;17.83;;
54641;SDS011;40536;53.194;5.728;2023-12-14T02:03:48;41.05;;;18.80;;
54641;SDS011;40536;53.194;5.728;2023-12-14T02:06:15;19.80;;;18.02;;
54641;SDS011;40536;53.194;5.728;2023-12-14T02:08:40;20.88;;;19.08;;
54641;SDS011;40536;53.194;5.728;2023-12-14T02:11:06;21.20;;;19.30;;
54641;SDS011;40536;53.194;5.728;2023-12-14T02:13:32;22.08;;;19.90;;
54641;SDS011;40536;53.194;5.728;2023-12-14T02:15:58;20.63;;;18.88;;
54641;SDS011;40536;53.194;5.728;2023-12-14T02:18:24;22.02;;;19.85;;
54641;SDS011;40536;53.194;5.728;2023-12-14T02:20:49;20.63;;;18.65;;
54641;SDS011;40536;53.194;5.728;2023-12-14T02:23:15;24.48;;;19.90;;
54641;SDS011;40536;53.194;5.728;2023-12-14T02:25:40;21.40;;;19.50;;
54641;SDS011;40536;53.194;5.728;2023-12-14T02:28:06;20.27;;;18.38;;
54641;SDS011;40536;53.194;5.728;2023-12-14T02:30:34;22.48;;;20.08;;
54641;SDS011;40536;53.194;5.728;2023-12-14T02:33:00;21.90;;;19.95;;
54641;SDS011;40536;53.194;5.728;2023-12-14T02:35:26;21.45;;;19.42;;
54641;SDS011;40536;53.194;5.728;2023-12-14T02:37:52;21.40;;;19.30;;
54641;SDS011;40536;53.194;5.728;2023-12-14T02:40:17;22.73;;;20.42;;
54641;SDS011;40536;53.194;5.728;2023-12-14T02:42:43;22.73;;;20.52;;
54641;SDS011;40536;53.194;5.728;2023-12-14T02:45:09;24.25;;;21.83;;
54641;SDS011;40536;53.194;5.728;2023-12-14T02:47:35;22.80;;;20.58;;
54641;SDS011;40536;53.194;5.728;2023-12-14T02:50:00;23.77;;;21.70;;
54641;SDS011;40536;53.194;5.728;2023-12-14T02:52:26;22.83;;;20.90;;
54641;SDS011;40536;53.194;5.728;2023-12-14T02:54:52;21.98;;;19.98;;
54641;SDS011;40536;53.194;5.728;2023-12-14T02:57:18;22.48;;;20.58;;
54641;SDS011;40536;53.194;5.728;2023-12-14T02:59:44;24.85;;;21.85;;
54641;SDS011;40536;53.194;5.728;2023-12-14T03:02:09;23.98;;;21.60;;
54641;SDS011;40536;53.194;5.728;2023-12-14T03:04:37;22.42;;;20.27;;
54641;SDS011;40536;53.194;5.728;2023-12-14T03:07:04;23.17;;;21.17;;
54641;SDS011;40536;53.194;5.728;2023-12-14T03:09:30;23.20;;;20.95;;
54641;SDS011;40536;53.194;5.728;2023-12-14T03:11:56;23.92;;;21.92;;
54641;SDS011;40536;53.194;5.728;2023-12-14T03:14:22;22.80;;;20.48;;
54641;SDS011;40536;53.194;5.728;2023-12-14T03:16:48;25.30;;;21.63;;
54641;SDS011;40536;53.194;5.728;2023-12-14T03:19:14;23.45;;;21.27;;
54641;SDS011;40536;53.194;5.728;2023-12-14T03:21:43;25.35;;;23.13;;
54641;SDS011;40536;53.194;5.728;2023-12-14T03:24:09;25.05;;;22.75;;
54641;SDS011;40536;53.194;5.728;2023-12-14T03:26:35;23.83;;;21.52;;
54641;SDS011;40536;53.194;5.728;2023-12-14T03:29:00;26.17;;;23.92;;
54641;SDS011;40536;53.194;5.728;2023-12-14T03:31:26;26.83;;;24.50;;
54641;SDS011;40536;53.194;5.728;2023-12-14T03:33:52;26.80;;;24.60;;
54641;SDS011;40536;53.194;5.728;2023-12-14T03:36:20;28.27;;;25.35;;
54641;SDS011;40536;53.194;5.728;2023-12-14T03:38:47;29.45;;;26.88;;
54641;SDS011;40536;53.194;5.728;2023-12-14T03:41:13;29.13;;;26.40;;
54641;SDS011;40536;53.194;5.728;2023-12-14T03:43:39;28.75;;;26.23;;
54641;SDS011;40536;53.194;5.728;2023-12-14T03:46:04;29.13;;;26.42;;
54641;SDS011;40536;53.194;5.728;2023-12-14T03:48:31;30.48;;;27.67;;
54641;SDS011;40536;53.194;5.728;2023-12-14T03:50:57;30.58;;;27.73;;
54641;SDS011;40536;53.194;5.728;2023-12-14T03:53:23;30.02;;;27.08;;
54641;SDS011;40536;53.194;5.728;2023-12-14T03:55:48;31.13;;;27.95;;
54641;SDS011;40536;53.194;5.728;2023-12-14T03:58:14;30.13;;;27.70;;
54641;SDS011;40536;53.194;5.728;2023-12-14T04:00:39;31.00;;;28.15;;
54641;SDS011;40536;53.194;5.728;2023-12-14T04:03:05;30.92;;;27.80;;
54641;SDS011;40536;53.194;5.728;2023-12-14T04:05:31;31.33;;;28.27;;
54641;SDS011;40536;53.194;5.728;2023-12-14T04:07:56;31.30;;;28.35;;
54641;SDS011;40536;53.194;5.728;2023-12-14T04:10:22;31.08;;;28.25;;
54641;SDS011;40536;53.194;5.728;2023-12-14T04:12:47;30.40;;;27.10;;
54641;SDS011;40536;53.194;5.728;2023-12-14T04:15:13;31.42;;;28.00;;
54641;SDS011;40536;53.194;5.728;2023-12-14T04:17:39;30.48;;;27.75;;
54641;SDS011;40536;53.194;5.728;2023-12-14T04:20:04;32.33;;;29.52;;
54641;SDS011;40536;53.194;5.728;2023-12-14T04:22:31;34.65;;;31.25;;
54641;SDS011;40536;53.194;5.728;2023-12-14T04:24:57;37.08;;;33.75;;
54641;SDS011;40536;53.194;5.728;2023-12-14T04:27:22;34.47;;;31.55;;
54641;SDS011;40536;53.194;5.728;2023-12-14T04:29:52;31.45;;;28.48;;
54641;SDS011;40536;53.194;5.728;2023-12-14T04:32:18;35.00;;;32.10;;
54641;SDS011;40536;53.194;5.728;2023-12-14T04:34:44;33.28;;;30.33;;
54641;SDS011;40536;53.194;5.728;2023-12-14T04:37:10;33.70;;;30.90;;
54641;SDS011;40536;53.194;5.728;2023-12-14T04:39:36;33.97;;;30.90;;
54641;SDS011;40536;53.194;5.728;2023-12-14T04:42:01;30.58;;;27.50;;
54641;SDS011;40536;53.194;5.728;2023-12-14T04:44:27;34.38;;;31.55;;
54641;SDS011;40536;53.194;5.728;2023-12-14T04:46:53;34.08;;;30.88;;
54641;SDS011;40536;53.194;5.728;2023-12-14T04:49:18;32.38;;;29.58;;
54641;SDS011;40536;53.194;5.728;2023-12-14T04:51:44;31.63;;;28.98;;
54641;SDS011;40536;53.194;5.728;2023-12-14T04:54:10;30.65;;;26.98;;
54641;SDS011;40536;53.194;5.728;2023-12-14T04:56:36;30.58;;;28.02;;
54641;SDS011;40536;53.194;5.728;2023-12-14T04:59:01;29.98;;;27.48;;
54641;SDS011;40536;53.194;5.728;2023-12-14T05:01:27;29.63;;;26.77;;
54641;SDS011;40536;53.194;5.728;2023-12-14T05:03:53;31.88;;;29.02;;
54641;SDS011;40536;53.194;5.728;2023-12-14T05:06:19;31.98;;;29.48;;
54641;SDS011;40536;53.194;5.728;2023-12-14T05:08:44;34.03;;;30.98;;
54641;SDS011;40536;53.194;5.728;2023-12-14T05:11:12;33.72;;;30.75;;
54641;SDS011;40536;53.194;5.728;2023-12-14T05:13:38;36.17;;;33.00;;
54641;SDS011;40536;53.194;5.728;2023-12-14T05:16:05;34.33;;;31.17;;
54641;SDS011;40536;53.194;5.728;2023-12-14T05:18:31;34.55;;;31.48;;
54641;SDS011;40536;53.194;5.728;2023-12-14T05:20:56;36.28;;;32.90;;
54641;SDS011;40536;53.194;5.728;2023-12-14T05:23:23;32.42;;;29.35;;
54641;SDS011;40536;53.194;5.728;2023-12-14T05:25:51;33.42;;;30.35;;
54641;SDS011;40536;53.194;5.728;2023-12-14T05:28:17;34.55;;;31.48;;
54641;SDS011;40536;53.194;5.728;2023-12-14T05:30:44;33.92;;;31.00;;
54641;SDS011;40536;53.194;5.728;2023-12-14T05:33:10;33.78;;;30.30;;
54641;SDS011;40536;53.194;5.728;2023-12-14T05:35:37;34.40;;;31.30;;
54641;SDS011;40536;53.194;5.728;2023-12-14T05:38:03;33.53;;;30.60;;
54641;SDS011;40536;53.194;5.728;2023-12-14T05:40:29;35.10;;;30.00;;
54641;SDS011;40536;53.194;5.728;2023-12-14T05:42:54;30.95;;;28.05;;
54641;SDS011;40536;53.194;5.728;2023-12-14T05:45:20;30.73;;;27.80;;
54641;SDS011;40536;53.194;5.728;2023-12-14T05:47:46;33.20;;;30.27;;
54641;SDS011;40536;53.194;5.728;2023-12-14T05:50:11;32.58;;;29.83;;
54641;SDS011;40536;53.194;5.728;2023-12-14T05:52:37;33.65;;;30.95;;
54641;SDS011;40536;53.194;5.728;2023-12-14T05:55:04;32.75;;;29.52;;
54641;SDS011;40536;53.194;5.728;2023-12-14T05:57:30;30.73;;;27.85;;
54641;SDS011;40536;53.194;5.728;2023-12-14T05:59:55;28.92;;;26.00;;
54641;SDS011;40536;53.194;5.728;2023-12-14T06:02:22;30.30;;;27.80;;
54641;SDS011;40536;53.194;5.728;2023-12-14T06:04:47;29.30;;;26.83;;
54641;SDS011;40536;53.194;5.728;2023-12-14T06:07:16;27.90;;;25.27;;
54641;SDS011;40536;53.194;5.728;2023-12-14T06:09:42;28.40;;;25.63;;
54641;SDS011;40536;53.194;5.728;2023-12-14T06:12:07;27.00;;;24.10;;
54641;SDS011;40536;53.194;5.728;2023-12-14T06:14:33;27.63;;;24.92;;
54641;SDS011;40536;53.194;5.728;2023-12-14T06:16:59;28.02;;;25.15;;
54641;SDS011;40536;53.194;5.728;2023-12-14T06:19:24;29.48;;;26.75;;
54641;SDS011;40536;53.194;5.728;2023-12-14T06:21:50;31.15;;;28.20;;
54641;SDS011;40536;53.194;5.728;2023-12-14T06:24:16;30.42;;;27.90;;
54641;SDS011;40536;53.194;5.728;2023-12-14T06:26:42;28.67;;;26.13;;
54641;SDS011;40536;53.194;5.728;2023-12-14T06:29:08;28.20;;;25.58;;
54641;SDS011;40536;53.194;5.728;2023-12-14T06:31:36;27.48;;;25.08;;
54641;SDS011;40536;53.194;5.728;2023-12-14T06:34:05;27.85;;;25.15;;
54641;SDS011;40536;53.194;5.728;2023-12-14T06:36:32;28.98;;;26.27;;
54641;SDS011;40536;53.194;5.728;2023-12-14T06:38:58;29.88;;;26.98;;
54641;SDS011;40536;53.194;5.728;2023-12-14T06:41:25;28.52;;;25.85;;
54641;SDS011;40536;53.194;5.728;2023-12-14T06:43:51;27.85;;;25.65;;
54641;SDS011;40536;53.194;5.728;2023-12-14T06:46:18;29.45;;;25.95;;
54641;SDS011;40536;53.194;5.728;2023-12-14T06:48:44;26.92;;;24.33;;
54641;SDS011;40536;53.194;5.728;2023-12-14T06:51:10;26.65;;;24.08;;
54641;SDS011;40536;53.194;5.728;2023-12-14T06:53:35;26.95;;;24.45;;
54641;SDS011;40536;53.194;5.728;2023-12-14T06:56:02;28.08;;;25.58;;
54641;SDS011;40536;53.194;5.728;2023-12-14T06:58:29;29.08;;;26.48;;
54641;SDS011;40536;53.194;5.728;2023-12-14T07:00:54;30.98;;;28.10;;
54641;SDS011;40536;53.194;5.728;2023-12-14T07:03:20;28.90;;;26.08;;
54641;SDS011;40536;53.194;5.728;2023-12-14T07:05:46;30.33;;;27.67;;
54641;SDS011;40536;53.194;5.728;2023-12-14T07:08:11;31.25;;;28.27;;
54641;SDS011;40536;53.194;5.728;2023-12-14T07:10:37;29.67;;;26.73;;
54641;SDS011;40536;53.194;5.728;2023-12-14T07:13:03;29.05;;;26.65;;
54641;SDS011;40536;53.194;5.728;2023-12-14T07:15:29;29.52;;;26.73;;
54641;SDS011;40536;53.194;5.728;2023-12-14T07:17:54;30.88;;;26.60;;
54641;SDS011;40536;53.194;5.728;2023-12-14T07:20:20;29.80;;;27.17;;
54641;SDS011;40536;53.194;5.728;2023-12-14T07:22:46;29.55;;;26.70;;
54641;SDS011;40536;53.194;5.728;2023-12-14T07:25:12;27.10;;;24.58;;
54641;SDS011;40536;53.194;5.728;2023-12-14T07:27:38;26.58;;;24.08;;
54641;SDS011;40536;53.194;5.728;2023-12-14T07:30:04;26.67;;;23.98;;
54641;SDS011;40536;53.194;5.728;2023-12-14T07:32:31;28.08;;;23.30;;
54641;SDS011;40536;53.194;5.728;2023-12-14T07:34:57;26.38;;;23.60;;
54641;SDS011;40536;53.194;5.728;2023-12-14T07:37:23;26.05;;;23.70;;
54641;SDS011;40536;53.194;5.728;2023-12-14T07:39:48;28.23;;;25.52;;
54641;SDS011;40536;53.194;5.728;2023-12-14T07:42:14;29.08;;;26.27;;
54641;SDS011;40536;53.194;5.728;2023-12-14T07:44:44;27.88;;;25.52;;
54641;SDS011;40536;53.194;5.728;2023-12-14T07:47:10;28.70;;;26.08;;
54641;SDS011;40536;53.194;5.728;2023-12-14T07:49:35;28.73;;;25.98;;
54641;SDS011;40536;53.194;5.728;2023-12-14T07:52:01;31.55;;;27.50;;
54641;SDS011;40536;53.194;5.728;2023-12-14T07:54:27;28.48;;;25.63;;
54641;SDS011;40536;53.194;5.728;2023-12-14T07:56:53;29.00;;;26.13;;
54641;SDS011;40536;53.194;5.728;2023-12-14T07:59:19;30.20;;;27.35;;
54641;SDS011;40536;53.194;5.728;2023-12-14T08:01:44;30.08;;;27.30;;
54641;SDS011;40536;53.194;5.728;2023-12-14T08:04:10;31.15;;;28.05;;
54641;SDS011;40536;53.194;5.728;2023-12-14T08:06:36;31.25;;;28.42;;
54641;SDS011;40536;53.194;5.728;2023-12-14T08:09:04;29.77;;;27.27;;
54641;SDS011;40536;53.194;5.728;2023-12-14T08:11:31;30.23;;;27.50;;
54641;SDS011;40536;53.194;5.728;2023-12-14T08:13:57;29.70;;;27.00;;
54641;SDS011;40536;53.194;5.728;2023-12-14T08:16:23;28.75;;;26.25;;
54641;SDS011;40536;53.194;5.728;2023-12-14T08:18:54;30.02;;;27.52;;
54641;SDS011;40536;53.194;5.728;2023-12-14T08:21:20;30.48;;;28.05;;
54641;SDS011;40536;53.194;5.728;2023-12-14T08:23:45;30.00;;;27.45;;
54641;SDS011;40536;53.194;5.728;2023-12-14T08:26:11;30.92;;;28.33;;
54641;SDS011;40536;53.194;5.728;2023-12-14T08:28:38;29.45;;;27.02;;
54641;SDS011;40536;53.194;5.728;2023-12-14T08:31:05;31.13;;;28.25;;
54641;SDS011;40536;53.194;5.728;2023-12-14T08:33:31;30.75;;;28.42;;
54641;SDS011;40536;53.194;5.728;2023-12-14T08:35:57;31.35;;;28.60;;
54641;SDS011;40536;53.194;5.728;2023-12-14T08:38:22;30.65;;;27.77;;
54641;SDS011;40536;53.194;5.728;2023-12-14T08:40:48;29.08;;;26.48;;
54641;SDS011;40536;53.194;5.728;2023-12-14T08:43:14;31.63;;;28.60;;
54641;SDS011;40536;53.194;5.728;2023-12-14T08:45:40;31.55;;;28.70;;
54641;SDS011;40536;53.194;5.728;2023-12-14T08:48:05;30.45;;;27.35;;
54641;SDS011;40536;53.194;5.728;2023-12-14T08:50:31;30.25;;;27.70;;
54641;SDS011;40536;53.194;5.728;2023-12-14T08:52:57;30.23;;;27.52;;
54641;SDS011;40536;53.194;5.728;2023-12-14T08:55:26;30.15;;;26.67;;
54641;SDS011;40536;53.194;5.728;2023-12-14T08:57:52;26.23;;;23.88;;
54641;SDS011;40536;53.194;5.728;2023-12-14T09:00:18;27.08;;;24.30;;
54641;SDS011;40536;53.194;5.728;2023-12-14T09:02:44;29.67;;;24.95;;
54641;SDS011;40536;53.194;5.728;2023-12-14T09:05:14;25.52;;;23.10;;
54641;SDS011;40536;53.194;5.728;2023-12-14T09:07:41;25.38;;;22.83;;
54641;SDS011;40536;53.194;5.728;2023-12-14T09:10:07;25.17;;;22.42;;
54641;SDS011;40536;53.194;5.728;2023-12-14T09:12:33;23.50;;;20.88;;
54641;SDS011;40536;53.194;5.728;2023-12-14T09:15:00;23.02;;;20.70;;
54641;SDS011;40536;53.194;5.728;2023-12-14T09:17:26;22.75;;;20.17;;
54641;SDS011;40536;53.194;5.728;2023-12-14T09:19:57;22.50;;;18.85;;
54641;SDS011;40536;53.194;5.728;2023-12-14T09:22:26;21.25;;;18.10;;
54641;SDS011;40536;53.194;5.728;2023-12-14T09:24:52;22.35;;;19.33;;
54641;SDS011;40536;53.194;5.728;2023-12-14T09:27:17;21.13;;;18.35;;
54641;SDS011;40536;53.194;5.728;2023-12-14T09:29:43;23.90;;;18.80;;
54641;SDS011;40536;53.194;5.728;2023-12-14T09:32:09;22.80;;;17.33;;
54641;SDS011;40536;53.194;5.728;2023-12-14T09:34:35;20.88;;;18.73;;
54641;SDS011;40536;53.194;5.728;2023-12-14T09:37:01;21.10;;;18.90;;
54641;SDS011;40536;53.194;5.728;2023-12-14T09:39:26;24.48;;;22.10;;
54641;SDS011;40536;53.194;5.728;2023-12-14T09:42:00;24.35;;;21.85;;
54641;SDS011;40536;53.194;5.728;2023-12-14T09:44:30;25.75;;;22.30;;
54641;SDS011;40536;53.194;5.728;2023-12-14T09:46:59;25.95;;;23.35;;
54641;SDS011;40536;53.194;5.728;2023-12-14T09:49:26;27.08;;;23.80;;
54641;SDS011;40536;53.194;5.728;2023-12-14T09:51:56;25.77;;;23.08;;
54641;SDS011;40536;53.194;5.728;2023-12-14T09:54:22;28.17;;;25.38;;
54641;SDS011;40536;53.194;5.728;2023-12-14T09:56:48;27.48;;;25.05;;
54641;SDS011;40536;53.194;5.728;2023-12-14T09:59:14;28.77;;;25.83;;
54641;SDS011;40536;53.194;5.728;2023-12-14T10:01:41;27.73;;;23.77;;
54641;SDS011;40536;53.194;5.728;2023-12-14T10:04:08;28.38;;;25.38;;
54641;SDS011;40536;53.194;5.728;2023-12-14T10:06:35;26.25;;;23.23;;
54641;SDS011;40536;53.194;5.728;2023-12-14T10:09:01;25.55;;;23.05;;
54641;SDS011;40536;53.194;5.728;2023-12-14T10:11:26;27.73;;;24.88;;
54641;SDS011;40536;53.194;5.728;2023-12-14T10:13:52;28.20;;;24.95;;
54641;SDS011;40536;53.194;5.728;2023-12-14T10:16:30;27.77;;;24.45;;
54641;SDS011;40536;53.194;5.728;2023-12-14T10:18:57;24.00;;;21.50;;
54641;SDS011;40536;53.194;5.728;2023-12-14T10:21:25;24.70;;;20.98;;
54641;SDS011;40536;53.194;5.728;2023-12-14T10:23:52;22.50;;;19.00;;
54641;SDS011;40536;53.194;5.728;2023-12-14T10:26:24;22.77;;;20.23;;
54641;SDS011;40536;53.194;5.728;2023-12-14T10:28:51;22.63;;;19.77;;
54641;SDS011;40536;53.194;5.728;2023-12-14T10:31:18;19.60;;;17.60;;
54641;SDS011;40536;53.194;5.728;2023-12-14T10:33:47;21.73;;;18.33;;
54641;SDS011;40536;53.194;5.728;2023-12-14T10:36:25;24.58;;;17.90;;
54641;SDS011;40536;53.194;5.728;2023-12-14T10:39:11;21.48;;;18.27;;
54641;SDS011;40536;53.194;5.728;2023-12-14T10:41:40;24.13;;;20.77;;
54641;SDS011;40536;53.194;5.728;2023-12-14T10:44:06;24.75;;;21.95;;
54641;SDS011;40536;53.194;5.728;2023-12-14T10:46:33;21.38;;;19.38;;
54641;SDS011;40536;53.194;5.728;2023-12-14T10:49:03;22.95;;;20.67;;
54641;SDS011;40536;53.194;5.728;2023-12-14T10:51:29;22.25;;;19.25;;
54641;SDS011;40536;53.194;5.728;2023-12-14T10:53:55;23.90;;;21.58;;
54641;SDS011;40536;53.194;5.728;2023-12-14T10:56:22;21.75;;;19.17;;
54641;SDS011;40536;53.194;5.728;2023-12-14T10:58:52;21.83;;;18.30;;
54641;SDS011;40536;53.194;5.728;2023-12-14T11:01:23;19.70;;;15.95;;
54641;SDS011;40536;53.194;5.728;2023-12-14T11:03:49;17.63;;;15.80;;
54641;SDS011;40536;53.194;5.728;2023-12-14T11:06:30;19.10;;;17.10;;
54641;SDS011;40536;53.194;5.728;2023-12-14T11:09:08;18.40;;;16.48;;
54641;SDS011;40536;53.194;5.728;2023-12-14T11:11:42;20.38;;;15.80;;
54641;SDS011;40536;53.194;5.728;2023-12-14T11:14:25;18.08;;;16.17;;
54641;SDS011;40536;53.194;5.728;2023-12-14T11:17:01;22.35;;;16.88;;
54641;SDS011;40536;53.194;5.728;2023-12-14T11:19:31;20.00;;;17.42;;
54641;SDS011;40536;53.194;5.728;2023-12-14T11:22:13;21.08;;;17.65;;
54641;SDS011;40536;53.194;5.728;2023-12-14T11:24:52;21.73;;;17.65;;
54641;SDS011;40536;53.194;5.728;2023-12-14T11:27:26;20.35;;;17.27;;
54641;SDS011;40536;53.194;5.728;2023-12-14T11:29:53;19.42;;;16.65;;
54641;SDS011;40536;53.194;5.728;2023-12-14T11:32:19;19.83;;;17.05;;
54641;SDS011;40536;53.194;5.728;2023-12-14T11:34:45;18.45;;;16.55;;
54641;SDS011;40536;53.194;5.728;2023-12-14T11:37:12;19.67;;;17.10;;
54641;SDS011;40536;53.194;5.728;2023-12-14T11:39:38;19.10;;;16.58;;
54641;SDS011;40536;53.194;5.728;2023-12-14T11:42:05;22.05;;;17.23;;
54641;SDS011;40536;53.194;5.728;2023-12-14T11:44:35;19.70;;;17.55;;
54641;SDS011;40536;53.194;5.728;2023-12-14T11:47:02;18.25;;;16.27;;
54641;SDS011;40536;53.194;5.728;2023-12-14T11:49:30;18.38;;;16.50;;
54641;SDS011;40536;53.194;5.728;2023-12-14T11:51:57;19.13;;;16.95;;
54641;SDS011;40536;53.194;5.728;2023-12-14T11:54:22;20.45;;;18.35;;
54641;SDS011;40536;53.194;5.728;2023-12-14T11:56:49;19.02;;;17.02;;
54641;SDS011;40536;53.194;5.728;2023-12-14T11:59:15;21.73;;;17.02;;
54641;SDS011;40536;53.194;5.728;2023-12-14T12:01:59;17.95;;;16.25;;
54641;SDS011;40536;53.194;5.728;2023-12-14T12:04:26;19.20;;;17.10;;
54641;SDS011;40536;53.194;5.728;2023-12-14T12:07:25;21.27;;;17.05;;
54641;SDS011;40536;53.194;5.728;2023-12-14T12:09:44;87.28;;;82.00;;
54641;SDS011;40536;53.194;5.728;2023-12-14T12:12:10;19.48;;;16.67;;
54641;SDS011;40536;53.194;5.728;2023-12-14T12:14:37;19.13;;;17.20;;
54641;SDS011;40536;53.194;5.728;2023-12-14T12:17:07;20.70;;;15.85;;
54641;SDS011;40536;53.194;5.728;2023-12-14T12:19:36;22.20;;;16.85;;
54641;SDS011;40536;53.194;5.728;2023-12-14T12:22:02;18.70;;;16.90;;
54641;SDS011;40536;53.194;5.728;2023-12-14T12:24:28;19.02;;;17.02;;
54641;SDS011;40536;53.194;5.728;2023-12-14T12:26:55;18.23;;;16.42;;
54641;SDS011;40536;53.194;5.728;2023-12-14T12:29:21;19.40;;;16.13;;
54641;SDS011;40536;53.194;5.728;2023-12-14T12:31:47;20.40;;;16.15;;
54641;SDS011;40536;53.194;5.728;2023-12-14T12:34:14;17.60;;;15.70;;
54641;SDS011;40536;53.194;5.728;2023-12-14T12:36:41;20.85;;;18.52;;
54641;SDS011;40536;53.194;5.728;2023-12-14T12:39:06;23.58;;;18.23;;
54641;SDS011;40536;53.194;5.728;2023-12-14T12:41:33;19.50;;;17.70;;
54641;SDS011;40536;53.194;5.728;2023-12-14T12:43:59;18.92;;;16.77;;
54641;SDS011;40536;53.194;5.728;2023-12-14T12:46:37;19.15;;;17.33;;
54641;SDS011;40536;53.194;5.728;2023-12-14T12:49:03;21.90;;;18.67;;
54641;SDS011;40536;53.194;5.728;2023-12-14T12:51:30;18.25;;;16.35;;
54641;SDS011;40536;53.194;5.728;2023-12-14T12:53:57;18.13;;;16.42;;
54641;SDS011;40536;53.194;5.728;2023-12-14T12:56:27;18.00;;;16.25;;
54641;SDS011;40536;53.194;5.728;2023-12-14T12:58:53;17.30;;;15.50;;
54641;SDS011;40536;53.194;5.728;2023-12-14T13:01:20;18.45;;;16.15;;
54641;SDS011;40536;53.194;5.728;2023-12-14T13:03:51;17.20;;;15.40;;
54641;SDS011;40536;53.194;5.728;2023-12-14T13:06:22;19.50;;;16.23;;
54641;SDS011;40536;53.194;5.728;2023-12-14T13:08:48;17.70;;;15.85;;
54641;SDS011;40536;53.194;5.728;2023-12-14T13:11:14;18.00;;;15.80;;
54641;SDS011;40536;53.194;5.728;2023-12-14T13:13:40;16.75;;;14.90;;
54641;SDS011;40536;53.194;5.728;2023-12-14T13:16:06;17.05;;;15.35;;
54641;SDS011;40536;53.194;5.728;2023-12-14T13:18:32;18.65;;;16.70;;
54641;SDS011;40536;53.194;5.728;2023-12-14T13:20:57;17.95;;;15.20;;
54641;SDS011;40536;53.194;5.728;2023-12-14T13:23:23;17.13;;;15.30;;
54641;SDS011;40536;53.194;5.728;2023-12-14T13:25:49;17.05;;;15.32;;
54641;SDS011;40536;53.194;5.728;2023-12-14T13:28:15;17.40;;;15.05;;
54641;SDS011;40536;53.194;5.728;2023-12-14T13:30:42;18.25;;;15.38;;
54641;SDS011;40536;53.194;5.728;2023-12-14T13:33:08;17.90;;;16.08;;
54641;SDS011;40536;53.194;5.728;2023-12-14T13:35:37;19.27;;;14.80;;
54641;SDS011;40536;53.194;5.728;2023-12-14T13:38:03;19.35;;;15.48;;
54641;SDS011;40536;53.194;5.728;2023-12-14T13:40:29;16.40;;;14.80;;
54641;SDS011;40536;53.194;5.728;2023-12-14T13:42:55;18.05;;;16.20;;
54641;SDS011;40536;53.194;5.728;2023-12-14T13:45:24;17.90;;;15.73;;
54641;SDS011;40536;53.194;5.728;2023-12-14T13:47:55;17.15;;;14.85;;
54641;SDS011;40536;53.194;5.728;2023-12-14T13:50:20;18.77;;;14.73;;
54641;SDS011;40536;53.194;5.728;2023-12-14T13:52:46;16.00;;;14.30;;
54641;SDS011;40536;53.194;5.728;2023-12-14T13:55:12;17.35;;;15.05;;
54641;SDS011;40536;53.194;5.728;2023-12-14T13:57:37;17.35;;;15.52;;
54641;SDS011;40536;53.194;5.728;2023-12-14T14:00:03;17.92;;;16.23;;
54641;SDS011;40536;53.194;5.728;2023-12-14T14:02:29;19.45;;;15.32;;
54641;SDS011;40536;53.194;5.728;2023-12-14T14:04:55;18.15;;;16.20;;
54641;SDS011;40536;53.194;5.728;2023-12-14T14:07:21;18.63;;;16.73;;
54641;SDS011;40536;53.194;5.728;2023-12-14T14:09:47;17.42;;;15.80;;
54641;SDS011;40536;53.194;5.728;2023-12-14T14:12:13;20.50;;;17.55;;
54641;SDS011;40536;53.194;5.728;2023-12-14T14:14:39;19.67;;;17.60;;
54641;SDS011;40536;53.194;5.728;2023-12-14T14:17:05;20.73;;;16.70;;
54641;SDS011;40536;53.194;5.728;2023-12-14T14:19:32;20.10;;;17.23;;
54641;SDS011;40536;53.194;5.728;2023-12-14T14:22:01;20.75;;;16.98;;